Sikinos — 9HA2865 — position and weather

sailwx.info

Track history (hours):
 
Tides and Currents Weather Stations Pressure Air Temp Water Temp Dewpoint Dewpoint Depression Visibility Wind Speed Wind Dir Waves Ship Positions

Sikinos

Last reported at 2017-Apr-25 10:29 UTC. Time now 2017-Apr-25 10:46 UTC.
Position N 51°19' E 003°12'.

Length 90 m; draft 4.5 m.

Type: Ship (hazmat cat A). MMSI: 256462000.

Date/timePositionNaut miles runAvg speedWind from/ knotsBaromVisibWave heightAir tempDewpointWater temp
2017-Apr-25 10:29N 51°19' E 003°12'0 0.0
2017-Apr-25 09:59N 51°19' E 003°12'0 0.0
2017-Apr-25 09:29N 51°19' E 003°12'0 0.0
2017-Apr-25 08:59N 51°19' E 003°12'0 0.0
2017-Apr-25 08:29N 51°19' E 003°12'0 0.0
2017-Apr-25 07:56N 51°19' E 003°12'0 0.0
2017-Apr-25 07:29N 51°19' E 003°12'0 0.0
2017-Apr-25 06:59N 51°19' E 003°12'0 0.0
2017-Apr-25 06:29N 51°19' E 003°12'0 0.0
2017-Apr-25 05:59N 51°19' E 003°12'0 0.0
2017-Apr-25 05:29N 51°19' E 003°12'0 0.0
2017-Apr-25 04:59N 51°19' E 003°12'0 0.0
2017-Apr-25 04:29N 51°19' E 003°12'0 0.0
2017-Apr-25 03:59N 51°19' E 003°12'0 0.0
2017-Apr-25 03:29N 51°19' E 003°12'0 0.0
2017-Apr-25 02:59N 51°19' E 003°12'0 0.0
2017-Apr-25 02:29N 51°19' E 003°12'0 0.0
2017-Apr-25 01:59N 51°19' E 003°12'0 0.0
2017-Apr-25 01:29N 51°19' E 003°12'0 0.0
2017-Apr-25 00:59N 51°19' E 003°12'0 0.0
2017-Apr-25 00:29N 51°19' E 003°12'0 0.0
2017-Apr-24 23:59N 51°19' E 003°12'0 0.0
2017-Apr-24 23:29N 51°19' E 003°12'0 0.0
2017-Apr-24 22:59N 51°19' E 003°12'0 0.0
2017-Apr-24 22:29N 51°19' E 003°12'0 0.0
2017-Apr-24 21:59N 51°19' E 003°12'0 0.0
2017-Apr-24 21:29N 51°19' E 003°12'0 0.0
2017-Apr-24 20:59N 51°19' E 003°12'0 0.0
2017-Apr-24 20:29N 51°19' E 003°12'0 0.0
2017-Apr-24 19:59N 51°19' E 003°12'0 0.0
2017-Apr-24 19:29N 51°19' E 003°12'0 0.0
2017-Apr-24 18:59N 51°19' E 003°12'0 0.0
2017-Apr-24 18:29N 51°19' E 003°12'0 0.0
2017-Apr-24 17:59N 51°19' E 003°12'0 0.0
2017-Apr-24 17:29N 51°19' E 003°12'0 0.0
2017-Apr-24 16:59N 51°19' E 003°12'0 0.0
2017-Apr-24 16:29N 51°19' E 003°12'0 0.0
2017-Apr-24 15:59N 51°19' E 003°12'0 0.0
2017-Apr-24 15:29N 51°19' E 003°12'0 0.0
2017-Apr-24 14:59N 51°19' E 003°12'0 0.0
2017-Apr-24 14:29N 51°19' E 003°12'0 0.0
2017-Apr-24 13:29N 51°19' E 003°12'0 0.0
2017-Apr-24 12:59N 51°19' E 003°12'0 0.0
2017-Apr-24 12:29N 51°19' E 003°12'0 0.0
2017-Apr-24 11:59N 51°19' E 003°12'0 0.0
2017-Apr-24 11:29N 51°19' E 003°12'0 0.0
2017-Apr-24 10:59N 51°19' E 003°12'0 0.0
2017-Apr-24 10:29N 51°19' E 003°12'0 0.0
2017-Apr-24 09:59N 51°19' E 003°12'0 0.0
2017-Apr-24 09:29N 51°19' E 003°12'0 0.0
2017-Apr-24 08:59N 51°19' E 003°12'0 0.0
2017-Apr-24 08:29N 51°19' E 003°12'0 0.0
2017-Apr-24 07:59N 51°19' E 003°12'1 1.5
2017-Apr-24 07:31N 51°19' E 003°12'1 2.9
2017-Apr-24 07:00N 51°20' E 003°13'0 0.0
2017-Apr-24 06:30N 51°20' E 003°13'0 0.0
2017-Apr-24 06:00N 51°20' E 003°13'1 2.8
2017-Apr-24 05:30N 51°21' E 003°12'2 4.2
2017-Apr-24 05:00N 51°22' E 003°09'5 9.3
2017-Apr-24 04:30N 51°22' E 003°02'611.6
2017-Apr-24 04:00N 51°22' E 002°53'611.9
2017-Apr-24 03:30N 51°21' E 002°43'3 6.8
2017-Apr-24 03:00N 51°18' E 002°42'4 8.5
2017-Apr-24 02:30N 51°14' E 002°39'4 8.4
2017-Apr-24 02:00N 51°11' E 002°36'4 8.3
2017-Apr-24 01:30N 51°08' E 002°31'4 8.6
2017-Apr-24 01:00N 51°05' E 002°26'3 6.4
2017-Apr-24 00:30N 51°03' E 002°22'0 0.4
2017-Apr-24 00:00N 51°03' E 002°22'2 3.0
2017-Apr-23 23:29N 51°03' E 002°19'0 0.0
2017-Apr-23 22:50N 51°03' E 002°19'0 0.0
2017-Apr-23 22:29N 51°03' E 002°19'0 0.0
2017-Apr-23 21:56N 51°03' E 002°19'0 0.0
2017-Apr-23 21:26N 51°03' E 002°19'0 0.0
2017-Apr-23 21:00N 51°03' E 002°19'0 0.0
2017-Apr-23 20:29N 51°03' E 002°19'0 0.0
2017-Apr-23 19:59N 51°03' E 002°19'0 0.0
2017-Apr-23 19:29N 51°03' E 002°19'0 0.0
2017-Apr-23 18:59N 51°03' E 002°19'0 0.0
2017-Apr-23 18:29N 51°03' E 002°19'0 0.0
2017-Apr-23 17:59N 51°03' E 002°19'0 0.0
2017-Apr-23 17:29N 51°03' E 002°19'0 0.0
2017-Apr-23 16:59N 51°03' E 002°19'0 0.0
2017-Apr-23 16:20N 51°03' E 002°19'0 0.0
2017-Apr-23 15:56N 51°03' E 002°19'0 0.0
2017-Apr-23 15:29N 51°03' E 002°19'0 0.0
2017-Apr-23 14:41N 51°03' E 002°19'1 1.2
2017-Apr-23 14:00N 51°03' E 002°21'0 0.1
2017-Apr-23 13:29N 51°03' E 002°21'1 1.2
2017-Apr-23 12:58N 51°04' E 002°21'2 4.2
2017-Apr-23 12:28N 51°04' E 002°18'510.6
2017-Apr-23 12:00N 51°03' E 002°10'613.0
2017-Apr-23 11:30N 51°02' E 001°60'611.5
2017-Apr-23 11:00N 51°02' E 001°51'2 4.1
2017-Apr-23 10:29N 51°04' E 001°50'0 0.1
2017-Apr-23 09:56N 51°04' E 001°50'0 0.1
2017-Apr-23 09:29N 51°04' E 001°50'0 0.0
2017-Apr-23 08:59N 51°04' E 001°50'0 0.0
2017-Apr-23 08:29N 51°04' E 001°50'0 0.0
2017-Apr-23 07:56N 51°04' E 001°50'0 0.1
2017-Apr-23 07:29N 51°04' E 001°50'0 0.2
2017-Apr-23 06:59N 51°04' E 001°50'0 0.0
2017-Apr-23 06:29N 51°04' E 001°50'0 0.0
2017-Apr-23 05:59N 51°04' E 001°50'0 0.0
2017-Apr-23 05:29N 51°04' E 001°50'0 0.0
2017-Apr-23 04:59N 51°04' E 001°50'0 0.0
2017-Apr-23 04:29N 51°04' E 001°50'0 0.0
2017-Apr-23 03:59N 51°04' E 001°50'0 0.0
2017-Apr-23 03:29N 51°04' E 001°50'0 0.0
2017-Apr-23 02:56N 51°04' E 001°50'0 0.0
2017-Apr-23 02:29N 51°04' E 001°50'0 0.0
2017-Apr-23 01:59N 51°04' E 001°50'0 0.0
2017-Apr-23 01:29N 51°04' E 001°50'0 0.0
2017-Apr-23 00:53N 51°04' E 001°50'0 0.0
2017-Apr-23 00:29N 51°04' E 001°50'0 0.1
2017-Apr-22 23:59N 51°04' E 001°50'0 0.1
2017-Apr-22 23:29N 51°04' E 001°50'0 0.0
2017-Apr-22 22:56N 51°04' E 001°50'0 0.0
2017-Apr-22 22:29N 51°04' E 001°50'0 0.0
2017-Apr-22 21:59N 51°04' E 001°50'0 0.1
2017-Apr-22 21:29N 51°04' E 001°50'2 4.7
2017-Apr-22 21:00N 51°03' E 001°53'611.0
2017-Apr-22 20:30N 51°03' E 002°02'5 9.9
2017-Apr-22 20:00N 51°02' E 002°10'1 2.5
2017-Apr-22 19:27N 51°01' E 002°11'0 0.0
2017-Apr-22 19:00N 51°01' E 002°11'0 0.0
2017-Apr-22 18:30N 51°01' E 002°11'0 0.0
2017-Apr-22 17:57N 51°01' E 002°11'0 0.0
2017-Apr-22 17:27N 51°01' E 002°11'0 0.0
2017-Apr-22 17:00N 51°01' E 002°11'0 0.0
2017-Apr-22 16:27N 51°01' E 002°11'0 0.0
2017-Apr-22 15:57N 51°01' E 002°11'0 0.0
2017-Apr-22 15:24N 51°01' E 002°11'0 0.0
2017-Apr-22 15:00N 51°01' E 002°11'0 0.0
2017-Apr-22 14:24N 51°01' E 002°11'0 0.0
2017-Apr-22 13:27N 51°01' E 002°11'0 0.0
2017-Apr-22 13:00N 51°01' E 002°11'0 0.0
2017-Apr-22 12:30N 51°01' E 002°11'0 0.0
2017-Apr-22 11:58N 51°01' E 002°11'2 4.6
2017-Apr-22 11:26N 51°03' E 002°09'4 9.6
2017-Apr-22 11:00N 51°03' E 002°02'612.7
2017-Apr-22 10:30N 51°02' E 001°52'3 4.9
2017-Apr-22 09:59N 51°03' E 001°48'0 0.1
2017-Apr-22 09:29N 51°03' E 001°48'0 0.0
2017-Apr-22 08:59N 51°03' E 001°48'0 0.2
2017-Apr-22 08:29N 51°03' E 001°48'0 0.0
2017-Apr-22 07:59N 51°03' E 001°48'0 0.2
2017-Apr-22 07:29N 51°03' E 001°48'0 0.2
2017-Apr-22 06:59N 51°03' E 001°48'0 0.0
2017-Apr-22 06:29N 51°03' E 001°48'0 0.0
2017-Apr-22 05:59N 51°03' E 001°48'0 0.0
2017-Apr-22 05:29N 51°03' E 001°48'0 0.0
2017-Apr-22 04:59N 51°03' E 001°48'0 0.0
2017-Apr-22 04:29N 51°03' E 001°48'0 0.0
2017-Apr-22 03:59N 51°03' E 001°48'0 0.0
2017-Apr-22 03:29N 51°03' E 001°48'1 2.7
2017-Apr-22 03:00N 51°03' E 001°50'612.2
2017-Apr-22 02:31N 51°06' E 001°59'612.1
2017-Apr-22 02:01N 51°08' E 002°08'611.6
2017-Apr-22 01:30N 51°10' E 002°17'611.2
2017-Apr-22 00:58N 51°13' E 002°25'511.1
2017-Apr-22 00:30N 51°16' E 002°31'510.6
2017-Apr-22 00:01N 51°19' E 002°38'510.4
2017-Apr-21 23:31N 51°21' E 002°45'611.3
2017-Apr-21 23:00N 51°22' E 002°54'611.5
2017-Apr-21 22:31N 51°22' E 003°04'510.6
2017-Apr-21 22:00N 51°21' E 003°12'1 1.3
2017-Apr-21 21:29N 51°21' E 003°12'0 0.0
2017-Apr-21 20:59N 51°21' E 003°12'0 0.0
2017-Apr-21 20:29N 51°21' E 003°12'0 0.0
2017-Apr-21 19:59N 51°21' E 003°12'0 0.0
2017-Apr-21 19:29N 51°21' E 003°12'0 0.0
2017-Apr-21 18:59N 51°21' E 003°12'0 0.0
2017-Apr-21 18:29N 51°21' E 003°12'0 0.0
2017-Apr-21 17:59N 51°21' E 003°12'0 0.0
2017-Apr-21 17:29N 51°21' E 003°12'0 0.0
2017-Apr-21 16:59N 51°21' E 003°12'0 0.0
2017-Apr-21 16:29N 51°21' E 003°12'0 0.0
2017-Apr-21 15:59N 51°21' E 003°12'0 0.0
2017-Apr-21 15:29N 51°21' E 003°12'0 0.0
2017-Apr-21 14:59N 51°21' E 003°12'0 0.0
2017-Apr-21 14:29N 51°21' E 003°12'0 0.0
2017-Apr-21 13:29N 51°21' E 003°12'0 0.0
2017-Apr-21 12:59N 51°21' E 003°12'0 0.0
2017-Apr-21 12:29N 51°21' E 003°12'0 0.0
2017-Apr-21 11:59N 51°21' E 003°12'0 0.0
2017-Apr-21 11:29N 51°21' E 003°12'0 0.0
2017-Apr-21 10:59N 51°21' E 003°12'0 0.0
2017-Apr-21 10:29N 51°21' E 003°12'0 0.0
2017-Apr-21 09:59N 51°21' E 003°12'0 0.0
2017-Apr-21 09:29N 51°21' E 003°12'0 0.0
2017-Apr-21 08:59N 51°21' E 003°12'0 0.0
2017-Apr-21 08:26N 51°21' E 003°12'0 0.0
2017-Apr-21 07:50N 51°21' E 003°12'0 0.0
2017-Apr-21 07:29N 51°21' E 003°12'0 0.0
2017-Apr-21 06:59N 51°21' E 003°12'0 0.0
2017-Apr-21 06:29N 51°21' E 003°12'0 0.0
2017-Apr-21 05:59N 51°21' E 003°12'0 0.0
2017-Apr-21 05:26N 51°21' E 003°12'0 0.0
2017-Apr-21 04:59N 51°21' E 003°12'0 0.0
2017-Apr-21 04:29N 51°21' E 003°12'0 0.0
2017-Apr-21 03:59N 51°21' E 003°12'0 0.0
2017-Apr-21 03:29N 51°21' E 003°12'0 0.0
2017-Apr-21 02:56N 51°21' E 003°12'0 0.0
2017-Apr-21 02:29N 51°21' E 003°12'0 0.0
2017-Apr-21 01:59N 51°21' E 003°12'0 0.0
2017-Apr-21 01:29N 51°21' E 003°12'0 0.0
2017-Apr-21 00:59N 51°21' E 003°12'0 0.0
2017-Apr-21 00:29N 51°21' E 003°12'0 0.0
2017-Apr-20 23:59N 51°21' E 003°12'0 0.0
2017-Apr-20 23:29N 51°21' E 003°12'0 0.0
2017-Apr-20 22:59N 51°21' E 003°12'0 0.0
2017-Apr-20 22:29N 51°21' E 003°12'0 0.0
2017-Apr-20 21:59N 51°21' E 003°12'0 0.0
2017-Apr-20 21:29N 51°21' E 003°12'0 0.0
2017-Apr-20 20:59N 51°21' E 003°12'0 0.0
2017-Apr-20 20:29N 51°21' E 003°12'0 0.0
2017-Apr-20 19:59N 51°21' E 003°12'0 0.0
2017-Apr-20 19:29N 51°21' E 003°12'0 0.0
2017-Apr-20 18:59N 51°21' E 003°12'0 0.0
2017-Apr-20 18:29N 51°21' E 003°12'0 0.0
2017-Apr-20 17:59N 51°21' E 003°12'0 0.0
2017-Apr-20 17:29N 51°21' E 003°12'0 0.0
2017-Apr-20 16:59N 51°21' E 003°12'0 0.0
2017-Apr-20 16:29N 51°21' E 003°12'0 0.0
2017-Apr-20 15:59N 51°21' E 003°12'0 0.0
2017-Apr-20 15:29N 51°21' E 003°12'0 0.0
2017-Apr-20 14:59N 51°21' E 003°12'0 0.0
2017-Apr-20 14:29N 51°21' E 003°12'0 0.0
2017-Apr-20 13:29N 51°21' E 003°12'0 0.0
2017-Apr-20 12:59N 51°21' E 003°12'0 0.0
2017-Apr-20 12:29N 51°21' E 003°12'0 0.0
2017-Apr-20 11:59N 51°21' E 003°12'0 0.0
2017-Apr-20 11:29N 51°21' E 003°12'0 0.0
2017-Apr-20 10:59N 51°21' E 003°12'0 0.0
2017-Apr-20 10:29N 51°21' E 003°12'0 0.0
2017-Apr-20 09:59N 51°21' E 003°12'0 0.0
2017-Apr-20 09:26N 51°21' E 003°12'0 0.0
2017-Apr-20 08:59N 51°21' E 003°12'0 0.0
2017-Apr-20 08:29N 51°21' E 003°12'0 0.0
2017-Apr-20 07:56N 51°21' E 003°12'0 0.0
2017-Apr-20 07:29N 51°21' E 003°12'0 0.0
2017-Apr-20 06:59N 51°21' E 003°12'0 0.0
2017-Apr-20 06:29N 51°21' E 003°12'0 0.0
2017-Apr-20 05:59N 51°21' E 003°12'0 0.0
2017-Apr-20 05:29N 51°21' E 003°12'0 0.0
2017-Apr-20 04:59N 51°21' E 003°12'0 0.0
2017-Apr-20 04:29N 51°21' E 003°12'0 0.0
2017-Apr-20 03:59N 51°21' E 003°12'0 0.0
2017-Apr-20 03:29N 51°21' E 003°12'0 0.0
2017-Apr-20 02:59N 51°21' E 003°12'0 0.0
2017-Apr-20 02:29N 51°21' E 003°12'0 0.0
2017-Apr-20 01:59N 51°21' E 003°12'0 0.0
2017-Apr-20 01:29N 51°21' E 003°12'0 0.0
2017-Apr-20 00:59N 51°21' E 003°12'0 0.0
2017-Apr-20 00:29N 51°21' E 003°12'0 0.0
2017-Apr-19 23:59N 51°21' E 003°12'0 0.0
2017-Apr-19 23:29N 51°21' E 003°12'0 0.0
2017-Apr-19 22:59N 51°21' E 003°12'0 0.0
2017-Apr-19 22:29N 51°21' E 003°12'0 0.0
2017-Apr-19 21:59N 51°21' E 003°12'0 0.0
2017-Apr-19 21:29N 51°21' E 003°12'0 0.0
2017-Apr-19 20:59N 51°21' E 003°12'0 0.0
2017-Apr-19 20:29N 51°21' E 003°12'0 0.0
2017-Apr-19 19:59N 51°21' E 003°12'0 0.0
2017-Apr-19 19:29N 51°21' E 003°12'0 0.0
2017-Apr-19 18:59N 51°21' E 003°12'0 0.0
2017-Apr-19 18:29N 51°21' E 003°12'0 0.0
2017-Apr-19 17:59N 51°21' E 003°12'0 0.0
2017-Apr-19 17:29N 51°21' E 003°12'0 0.0
2017-Apr-19 16:59N 51°21' E 003°12'0 0.0
2017-Apr-19 16:29N 51°21' E 003°12'0 0.0
2017-Apr-19 15:59N 51°21' E 003°12'0 0.0
2017-Apr-19 15:29N 51°21' E 003°12'0 0.0
2017-Apr-19 14:59N 51°21' E 003°12'0 0.0
2017-Apr-19 14:29N 51°21' E 003°12'0 0.0
2017-Apr-19 13:26N 51°21' E 003°12'0 0.0
2017-Apr-19 12:59N 51°21' E 003°12'0 0.0
2017-Apr-19 12:29N 51°21' E 003°12'0 0.0
2017-Apr-19 11:59N 51°21' E 003°12'0 0.0
2017-Apr-19 11:29N 51°21' E 003°12'0 0.0
2017-Apr-19 10:59N 51°21' E 003°12'0 0.0
2017-Apr-19 10:29N 51°21' E 003°12'0 0.0
2017-Apr-19 09:59N 51°21' E 003°12'0 0.0
2017-Apr-19 09:29N 51°21' E 003°12'0 0.0
2017-Apr-19 08:59N 51°21' E 003°12'0 0.0
2017-Apr-19 08:29N 51°21' E 003°12'0 0.0
2017-Apr-19 07:59N 51°21' E 003°12'0 0.0
2017-Apr-19 07:26N 51°21' E 003°12'0 0.0
2017-Apr-19 06:59N 51°21' E 003°12'0 0.0
2017-Apr-19 06:29N 51°21' E 003°12'0 0.0
2017-Apr-19 05:59N 51°21' E 003°12'0 0.0
2017-Apr-19 05:29N 51°21' E 003°12'0 0.0
2017-Apr-19 04:59N 51°21' E 003°12'0 0.0
2017-Apr-19 04:29N 51°21' E 003°12'0 0.0
2017-Apr-19 03:59N 51°21' E 003°12'0 0.0
2017-Apr-19 03:29N 51°21' E 003°12'0 0.0
2017-Apr-19 02:59N 51°21' E 003°12'0 0.0
2017-Apr-19 02:29N 51°21' E 003°12'0 0.0
2017-Apr-19 01:59N 51°21' E 003°12'0 0.0
2017-Apr-19 01:29N 51°21' E 003°12'0 0.0
2017-Apr-19 00:59N 51°21' E 003°12'0 0.0
2017-Apr-19 00:29N 51°21' E 003°12'0 0.0
2017-Apr-18 23:59N 51°21' E 003°12'0 0.0
2017-Apr-18 23:28N 51°21' E 003°12'0 0.0
2017-Apr-18 22:59N 51°21' E 003°12'0 0.0
2017-Apr-18 22:29N 51°21' E 003°12'0 0.0
2017-Apr-18 21:59N 51°21' E 003°12'0 0.0
2017-Apr-18 21:29N 51°21' E 003°12'0 0.0
2017-Apr-18 20:58N 51°21' E 003°12'0 0.0
2017-Apr-18 20:26N 51°21' E 003°12'0 0.0
2017-Apr-18 19:59N 51°21' E 003°12'0 0.0
2017-Apr-18 19:26N 51°21' E 003°12'0 0.0
2017-Apr-18 18:59N 51°21' E 003°12'0 0.0
2017-Apr-18 18:29N 51°21' E 003°12'0 0.0
2017-Apr-18 17:59N 51°21' E 003°12'0 0.0
2017-Apr-18 17:29N 51°21' E 003°12'0 0.0
2017-Apr-18 16:59N 51°21' E 003°12'0 0.0
2017-Apr-18 16:29N 51°21' E 003°12'0 0.0
2017-Apr-18 15:59N 51°21' E 003°12'0 0.0
2017-Apr-18 15:29N 51°21' E 003°12'0 0.0
2017-Apr-18 14:56N 51°21' E 003°12'0 0.0
2017-Apr-18 13:59N 51°21' E 003°12'0 0.0
2017-Apr-18 13:29N 51°21' E 003°12'0 0.0
2017-Apr-18 12:59N 51°21' E 003°12'0 0.0
2017-Apr-18 12:29N 51°21' E 003°12'0 0.0
2017-Apr-18 11:59N 51°21' E 003°12'0 0.0
2017-Apr-18 11:28N 51°21' E 003°12'0 0.0
2017-Apr-18 10:58N 51°21' E 003°12'0 0.0
2017-Apr-18 10:28N 51°21' E 003°12'0 0.0
2017-Apr-18 09:58N 51°21' E 003°12'0 0.0
2017-Apr-18 09:29N 51°21' E 003°12'0 0.0
2017-Apr-18 08:59N 51°21' E 003°12'0 0.0
2017-Apr-18 08:29N 51°21' E 003°12'1 2.6
2017-Apr-18 08:01N 51°22' E 003°11'510.8
2017-Apr-18 07:30N 51°22' E 003°02'612.0
2017-Apr-18 07:01N 51°21' E 002°53'611.8
2017-Apr-18 06:31N 51°21' E 002°44'3 5.4
2017-Apr-18 06:01N 51°19' E 002°42'4 8.1
2017-Apr-18 05:31N 51°15' E 002°40'4 8.3
2017-Apr-18 05:01N 51°11' E 002°37'4 7.9
2017-Apr-18 04:30N 51°08' E 002°33'5 9.2
2017-Apr-18 04:00N 51°05' E 002°28'5 9.6
2017-Apr-18 03:30N 51°03' E 002°20'1 1.3
2017-Apr-18 02:59N 51°03' E 002°19'0 0.8
2017-Apr-18 02:26N 51°03' E 002°19'0 0.0
2017-Apr-18 01:59N 51°03' E 002°19'0 0.0
2017-Apr-18 01:26N 51°03' E 002°19'0 0.0
2017-Apr-18 00:59N 51°03' E 002°19'0 0.0
2017-Apr-18 00:30N 51°03' E 002°19'0 0.0
2017-Apr-17 23:59N 51°03' E 002°19'0 0.0
2017-Apr-17 23:29N 51°03' E 002°19'0 0.0
2017-Apr-17 22:56N 51°03' E 002°19'0 0.0
2017-Apr-17 22:28N 51°03' E 002°19'2 3.9
2017-Apr-17 21:57N 51°03' E 002°22'0 0.2
2017-Apr-17 21:28N 51°03' E 002°22'1 3.0
2017-Apr-17 21:00N 51°04' E 002°21'610.6
2017-Apr-17 20:28N 51°03' E 002°11'611.2
2017-Apr-17 19:59N 51°03' E 002°03'611.7
2017-Apr-17 19:28N 51°03' E 001°53'2 3.0
2017-Apr-17 18:56N 51°03' E 001°51'0 0.0
2017-Apr-17 18:29N 51°03' E 001°51'0 0.2
2017-Apr-17 17:59N 51°03' E 001°51'0 0.1
2017-Apr-17 17:23N 51°03' E 001°51'0 0.0
2017-Apr-17 16:59N 51°03' E 001°51'0 0.3
2017-Apr-17 16:31N 51°03' E 001°51'4 7.4
2017-Apr-17 16:01N 51°02' E 001°57'611.0
2017-Apr-17 15:30N 51°03' E 002°06'611.0
2017-Apr-17 14:59N 51°04' E 002°15'4 7.8
2017-Apr-17 14:30N 51°03' E 002°21'1 0.8
2017-Apr-17 13:26N 51°03' E 002°19'0 0.0
2017-Apr-17 12:59N 51°03' E 002°19'0 0.0
2017-Apr-17 12:29N 51°03' E 002°19'0 0.0
2017-Apr-17 11:59N 51°03' E 002°19'0 0.0
2017-Apr-17 11:29N 51°03' E 002°19'0 0.0
2017-Apr-17 10:59N 51°03' E 002°19'0 0.0
2017-Apr-17 10:29N 51°03' E 002°19'0 0.0
2017-Apr-17 09:59N 51°03' E 002°19'0 0.0
2017-Apr-17 09:27N 51°03' E 002°19'0 0.0
2017-Apr-17 08:59N 51°03' E 002°19'0 0.0
2017-Apr-17 08:20N 51°03' E 002°19'0 0.0
2017-Apr-17 07:59N 51°03' E 002°19'0 0.0
2017-Apr-17 07:29N 51°03' E 002°19'0 0.0
2017-Apr-17 06:59N 51°03' E 002°19'0 0.0
2017-Apr-17 06:29N 51°03' E 002°19'0 0.0
2017-Apr-17 05:59N 51°03' E 002°19'0 0.0
2017-Apr-17 05:23N 51°03' E 002°19'0 0.0
2017-Apr-17 04:56N 51°03' E 002°19'0 0.0
2017-Apr-17 03:59N 51°03' E 002°19'0 0.0
2017-Apr-17 03:29N 51°03' E 002°19'0 0.0
2017-Apr-17 02:59N 51°03' E 002°19'0 0.0
2017-Apr-17 02:23N 51°03' E 002°19'0 0.0
2017-Apr-17 01:59N 51°03' E 002°19'0 0.0
2017-Apr-17 01:29N 51°03' E 002°19'0 0.0
2017-Apr-17 00:56N 51°03' E 002°19'0 0.0
2017-Apr-17 00:23N 51°03' E 002°19'0 0.0
2017-Apr-16 23:59N 51°03' E 002°19'0 0.0
2017-Apr-16 23:26N 51°03' E 002°19'0 0.0
2017-Apr-16 22:59N 51°03' E 002°19'1 1.7
2017-Apr-16 22:30N 51°03' E 002°21'0 0.9
2017-Apr-16 22:00N 51°04' E 002°21'5 9.3
2017-Apr-16 21:29N 51°04' E 002°14'510.6
2017-Apr-16 21:00N 51°03' E 002°05'510.7
2017-Apr-16 20:30N 51°02' E 001°57'4 8.5
2017-Apr-16 20:00N 51°01' E 001°50'5 9.0
2017-Apr-16 19:30N 51°05' E 001°55'611.9
2017-Apr-16 19:00N 51°07' E 002°04'611.5
2017-Apr-16 18:30N 51°09' E 002°13'510.6
2017-Apr-16 18:00N 51°11' E 002°21'510.6
2017-Apr-16 17:30N 51°14' E 002°27'510.4
2017-Apr-16 17:01N 51°18' E 002°33'510.5
2017-Apr-16 16:30N 51°21' E 002°40'4 7.8
2017-Apr-16 16:00N 51°22' E 002°45'5 9.8
2017-Apr-16 15:30N 51°22' E 002°53'510.2
2017-Apr-16 15:00N 51°22' E 003°01'7 6.3
2017-Apr-16 13:58N 51°21' E 003°12'0 0.0
2017-Apr-16 13:28N 51°21' E 003°12'0 0.0
2017-Apr-16 12:55N 51°21' E 003°12'0 0.0
2017-Apr-16 12:28N 51°21' E 003°12'0 0.0
2017-Apr-16 11:58N 51°21' E 003°12'0 0.0
2017-Apr-16 11:28N 51°21' E 003°12'0 0.0
2017-Apr-16 10:58N 51°21' E 003°12'0 0.0
2017-Apr-16 10:28N 51°21' E 003°12'0 0.0
2017-Apr-16 09:58N 51°21' E 003°12'0 0.0
2017-Apr-16 09:28N 51°21' E 003°12'0 0.0
2017-Apr-16 08:58N 51°21' E 003°12'0 0.0
2017-Apr-16 08:28N 51°21' E 003°12'0 0.0
2017-Apr-16 07:58N 51°21' E 003°12'0 0.0
2017-Apr-16 07:28N 51°21' E 003°12'0 0.0
2017-Apr-16 06:58N 51°21' E 003°12'0 0.0
2017-Apr-16 06:28N 51°21' E 003°12'0 0.0
2017-Apr-16 05:58N 51°21' E 003°12'0 0.0
2017-Apr-16 05:28N 51°21' E 003°12'0 0.0
2017-Apr-16 04:55N 51°21' E 003°12'0 0.0
2017-Apr-16 04:28N 51°21' E 003°12'0 0.0
2017-Apr-16 03:58N 51°21' E 003°12'0 0.0
2017-Apr-16 03:28N 51°21' E 003°12'0 0.3
2017-Apr-16 03:01N 51°21' E 003°12'4 8.6
2017-Apr-16 02:30N 51°22' E 003°05'713.8
2017-Apr-16 02:00N 51°21' E 002°54'613.0
2017-Apr-16 01:30N 51°21' E 002°44'611.4
2017-Apr-16 01:00N 51°16' E 002°40'611.6
2017-Apr-16 00:30N 51°11' E 002°36'510.4
2017-Apr-16 00:00N 51°07' E 002°31'510.3
2017-Apr-15 23:30N 51°04' E 002°23'2 4.2
2017-Apr-15 23:01N 51°03' E 002°20'1 1.4
2017-Apr-15 22:30N 51°03' E 002°19'0 0.1
2017-Apr-15 21:58N 51°03' E 002°19'0 0.0
2017-Apr-15 21:28N 51°03' E 002°19'0 0.0
2017-Apr-15 20:58N 51°03' E 002°19'0 0.0
2017-Apr-15 20:28N 51°03' E 002°19'0 0.0
2017-Apr-15 19:58N 51°03' E 002°19'0 0.0
2017-Apr-15 19:28N 51°03' E 002°19'0 0.0
2017-Apr-15 18:58N 51°03' E 002°19'0 0.0
2017-Apr-15 18:28N 51°03' E 002°19'0 0.0
2017-Apr-15 17:58N 51°03' E 002°19'0 0.0
2017-Apr-15 17:28N 51°03' E 002°19'0 0.0
2017-Apr-15 16:58N 51°03' E 002°19'0 0.0
2017-Apr-15 16:25N 51°03' E 002°19'0 0.0
2017-Apr-15 15:55N 51°03' E 002°19'0 0.0
2017-Apr-15 15:25N 51°03' E 002°19'0 0.0
2017-Apr-15 14:58N 51°03' E 002°19'0 0.0
2017-Apr-15 14:28N 51°03' E 002°19'1 0.6
2017-Apr-15 13:17N 51°03' E 002°21'1 1.9
2017-Apr-15 13:00N 51°04' E 002°21'713.2
2017-Apr-15 12:30N 51°03' E 002°10'713.2
2017-Apr-15 11:59N 51°02' E 001°60'510.9
2017-Apr-15 11:30N 51°03' E 001°51'611.2
2017-Apr-15 11:00N 51°06' E 001°59'  
Track history (hours):
 
Tides and Currents Weather Stations Pressure Air Temp Water Temp Dewpoint Dewpoint Depression Visibility Wind Speed Wind Dir Waves Ship Positions

Sikinos

Last reported at 2017-Apr-25 10:29 UTC. Time now 2017-Apr-25 10:46 UTC.
Position N 51°19' E 003°12'.

Length 90 m; draft 4.5 m.

Type: Ship (hazmat cat A). MMSI: 256462000.

Date/timePositionNaut miles runAvg speedWind from/ knotsBaromVisibWave heightAir tempDewpointWater temp
2017-Apr-25 10:29N 51°19' E 003°12'0 0.0
2017-Apr-25 09:59N 51°19' E 003°12'0 0.0
2017-Apr-25 09:29N 51°19' E 003°12'0 0.0
2017-Apr-25 08:59N 51°19' E 003°12'0 0.0
2017-Apr-25 08:29N 51°19' E 003°12'0 0.0
2017-Apr-25 07:56N 51°19' E 003°12'0 0.0
2017-Apr-25 07:29N 51°19' E 003°12'0 0.0
2017-Apr-25 06:59N 51°19' E 003°12'0 0.0
2017-Apr-25 06:29N 51°19' E 003°12'0 0.0
2017-Apr-25 05:59N 51°19' E 003°12'0 0.0
2017-Apr-25 05:29N 51°19' E 003°12'0 0.0
2017-Apr-25 04:59N 51°19' E 003°12'0 0.0
2017-Apr-25 04:29N 51°19' E 003°12'0 0.0
2017-Apr-25 03:59N 51°19' E 003°12'0 0.0
2017-Apr-25 03:29N 51°19' E 003°12'0 0.0
2017-Apr-25 02:59N 51°19' E 003°12'0 0.0
2017-Apr-25 02:29N 51°19' E 003°12'0 0.0
2017-Apr-25 01:59N 51°19' E 003°12'0 0.0
2017-Apr-25 01:29N 51°19' E 003°12'0 0.0
2017-Apr-25 00:59N 51°19' E 003°12'0 0.0
2017-Apr-25 00:29N 51°19' E 003°12'0 0.0
2017-Apr-24 23:59N 51°19' E 003°12'0 0.0
2017-Apr-24 23:29N 51°19' E 003°12'0 0.0
2017-Apr-24 22:59N 51°19' E 003°12'0 0.0
2017-Apr-24 22:29N 51°19' E 003°12'0 0.0
2017-Apr-24 21:59N 51°19' E 003°12'0 0.0
2017-Apr-24 21:29N 51°19' E 003°12'0 0.0
2017-Apr-24 20:59N 51°19' E 003°12'0 0.0
2017-Apr-24 20:29N 51°19' E 003°12'0 0.0
2017-Apr-24 19:59N 51°19' E 003°12'0 0.0
2017-Apr-24 19:29N 51°19' E 003°12'0 0.0
2017-Apr-24 18:59N 51°19' E 003°12'0 0.0
2017-Apr-24 18:29N 51°19' E 003°12'0 0.0
2017-Apr-24 17:59N 51°19' E 003°12'0 0.0
2017-Apr-24 17:29N 51°19' E 003°12'0 0.0
2017-Apr-24 16:59N 51°19' E 003°12'0 0.0
2017-Apr-24 16:29N 51°19' E 003°12'0 0.0
2017-Apr-24 15:59N 51°19' E 003°12'0 0.0
2017-Apr-24 15:29N 51°19' E 003°12'0 0.0
2017-Apr-24 14:59N 51°19' E 003°12'0 0.0
2017-Apr-24 14:29N 51°19' E 003°12'0 0.0
2017-Apr-24 13:29N 51°19' E 003°12'0 0.0
2017-Apr-24 12:59N 51°19' E 003°12'0 0.0
2017-Apr-24 12:29N 51°19' E 003°12'0 0.0
2017-Apr-24 11:59N 51°19' E 003°12'0 0.0
2017-Apr-24 11:29N 51°19' E 003°12'0 0.0
2017-Apr-24 10:59N 51°19' E 003°12'0 0.0
2017-Apr-24 10:29N 51°19' E 003°12'0 0.0
2017-Apr-24 09:59N 51°19' E 003°12'0 0.0
2017-Apr-24 09:29N 51°19' E 003°12'0 0.0
2017-Apr-24 08:59N 51°19' E 003°12'0 0.0
2017-Apr-24 08:29N 51°19' E 003°12'0 0.0
2017-Apr-24 07:59N 51°19' E 003°12'1 1.5
2017-Apr-24 07:31N 51°19' E 003°12'1 2.9
2017-Apr-24 07:00N 51°20' E 003°13'0 0.0
2017-Apr-24 06:30N 51°20' E 003°13'0 0.0
2017-Apr-24 06:00N 51°20' E 003°13'1 2.8
2017-Apr-24 05:30N 51°21' E 003°12'2 4.2
2017-Apr-24 05:00N 51°22' E 003°09'5 9.3
2017-Apr-24 04:30N 51°22' E 003°02'611.6
2017-Apr-24 04:00N 51°22' E 002°53'611.9
2017-Apr-24 03:30N 51°21' E 002°43'3 6.8
2017-Apr-24 03:00N 51°18' E 002°42'4 8.5
2017-Apr-24 02:30N 51°14' E 002°39'4 8.4
2017-Apr-24 02:00N 51°11' E 002°36'4 8.3
2017-Apr-24 01:30N 51°08' E 002°31'4 8.6
2017-Apr-24 01:00N 51°05' E 002°26'3 6.4
2017-Apr-24 00:30N 51°03' E 002°22'0 0.4
2017-Apr-24 00:00N 51°03' E 002°22'2 3.0
2017-Apr-23 23:29N 51°03' E 002°19'0 0.0
2017-Apr-23 22:50N 51°03' E 002°19'0 0.0
2017-Apr-23 22:29N 51°03' E 002°19'0 0.0
2017-Apr-23 21:56N 51°03' E 002°19'0 0.0
2017-Apr-23 21:26N 51°03' E 002°19'0 0.0
2017-Apr-23 21:00N 51°03' E 002°19'0 0.0
2017-Apr-23 20:29N 51°03' E 002°19'0 0.0
2017-Apr-23 19:59N 51°03' E 002°19'0 0.0
2017-Apr-23 19:29N 51°03' E 002°19'0 0.0
2017-Apr-23 18:59N 51°03' E 002°19'0 0.0
2017-Apr-23 18:29N 51°03' E 002°19'0 0.0
2017-Apr-23 17:59N 51°03' E 002°19'0 0.0
2017-Apr-23 17:29N 51°03' E 002°19'0 0.0
2017-Apr-23 16:59N 51°03' E 002°19'0 0.0
2017-Apr-23 16:20N 51°03' E 002°19'0 0.0
2017-Apr-23 15:56N 51°03' E 002°19'0 0.0
2017-Apr-23 15:29N 51°03' E 002°19'0 0.0
2017-Apr-23 14:41N 51°03' E 002°19'1 1.2
2017-Apr-23 14:00N 51°03' E 002°21'0 0.1
2017-Apr-23 13:29N 51°03' E 002°21'1 1.2
2017-Apr-23 12:58N 51°04' E 002°21'2 4.2
2017-Apr-23 12:28N 51°04' E 002°18'510.6
2017-Apr-23 12:00N 51°03' E 002°10'613.0
2017-Apr-23 11:30N 51°02' E 001°60'611.5
2017-Apr-23 11:00N 51°02' E 001°51'2 4.1
2017-Apr-23 10:29N 51°04' E 001°50'0 0.1
2017-Apr-23 09:56N 51°04' E 001°50'0 0.1
2017-Apr-23 09:29N 51°04' E 001°50'0 0.0
2017-Apr-23 08:59N 51°04' E 001°50'0 0.0
2017-Apr-23 08:29N 51°04' E 001°50'0 0.0
2017-Apr-23 07:56N 51°04' E 001°50'0 0.1
2017-Apr-23 07:29N 51°04' E 001°50'0 0.2
2017-Apr-23 06:59N 51°04' E 001°50'0 0.0
2017-Apr-23 06:29N 51°04' E 001°50'0 0.0
2017-Apr-23 05:59N 51°04' E 001°50'0 0.0
2017-Apr-23 05:29N 51°04' E 001°50'0 0.0
2017-Apr-23 04:59N 51°04' E 001°50'0 0.0
2017-Apr-23 04:29N 51°04' E 001°50'0 0.0
2017-Apr-23 03:59N 51°04' E 001°50'0 0.0
2017-Apr-23 03:29N 51°04' E 001°50'0 0.0
2017-Apr-23 02:56N 51°04' E 001°50'0 0.0
2017-Apr-23 02:29N 51°04' E 001°50'0 0.0
2017-Apr-23 01:59N 51°04' E 001°50'0 0.0
2017-Apr-23 01:29N 51°04' E 001°50'0 0.0
2017-Apr-23 00:53N 51°04' E 001°50'0 0.0
2017-Apr-23 00:29N 51°04' E 001°50'0 0.1
2017-Apr-22 23:59N 51°04' E 001°50'0 0.1
2017-Apr-22 23:29N 51°04' E 001°50'0 0.0
2017-Apr-22 22:56N 51°04' E 001°50'0 0.0
2017-Apr-22 22:29N 51°04' E 001°50'0 0.0
2017-Apr-22 21:59N 51°04' E 001°50'0 0.1
2017-Apr-22 21:29N 51°04' E 001°50'2 4.7
2017-Apr-22 21:00N 51°03' E 001°53'611.0
2017-Apr-22 20:30N 51°03' E 002°02'5 9.9
2017-Apr-22 20:00N 51°02' E 002°10'1 2.5
2017-Apr-22 19:27N 51°01' E 002°11'0 0.0
2017-Apr-22 19:00N 51°01' E 002°11'0 0.0
2017-Apr-22 18:30N 51°01' E 002°11'0 0.0
2017-Apr-22 17:57N 51°01' E 002°11'0 0.0
2017-Apr-22 17:27N 51°01' E 002°11'0 0.0
2017-Apr-22 17:00N 51°01' E 002°11'0 0.0
2017-Apr-22 16:27N 51°01' E 002°11'0 0.0
2017-Apr-22 15:57N 51°01' E 002°11'0 0.0
2017-Apr-22 15:24N 51°01' E 002°11'0 0.0
2017-Apr-22 15:00N 51°01' E 002°11'0 0.0
2017-Apr-22 14:24N 51°01' E 002°11'0 0.0
2017-Apr-22 13:27N 51°01' E 002°11'0 0.0
2017-Apr-22 13:00N 51°01' E 002°11'0 0.0
2017-Apr-22 12:30N 51°01' E 002°11'0 0.0
2017-Apr-22 11:58N 51°01' E 002°11'2 4.6
2017-Apr-22 11:26N 51°03' E 002°09'4 9.6
2017-Apr-22 11:00N 51°03' E 002°02'612.7
2017-Apr-22 10:30N 51°02' E 001°52'3 4.9
2017-Apr-22 09:59N 51°03' E 001°48'0 0.1
2017-Apr-22 09:29N 51°03' E 001°48'0 0.0
2017-Apr-22 08:59N 51°03' E 001°48'0 0.2
2017-Apr-22 08:29N 51°03' E 001°48'0 0.0
2017-Apr-22 07:59N 51°03' E 001°48'0 0.2
2017-Apr-22 07:29N 51°03' E 001°48'0 0.2
2017-Apr-22 06:59N 51°03' E 001°48'0 0.0
2017-Apr-22 06:29N 51°03' E 001°48'0 0.0
2017-Apr-22 05:59N 51°03' E 001°48'0 0.0
2017-Apr-22 05:29N 51°03' E 001°48'0 0.0
2017-Apr-22 04:59N 51°03' E 001°48'0 0.0
2017-Apr-22 04:29N 51°03' E 001°48'0 0.0
2017-Apr-22 03:59N 51°03' E 001°48'0 0.0
2017-Apr-22 03:29N 51°03' E 001°48'1 2.7
2017-Apr-22 03:00N 51°03' E 001°50'612.2
2017-Apr-22 02:31N 51°06' E 001°59'612.1
2017-Apr-22 02:01N 51°08' E 002°08'611.6
2017-Apr-22 01:30N 51°10' E 002°17'611.2
2017-Apr-22 00:58N 51°13' E 002°25'511.1
2017-Apr-22 00:30N 51°16' E 002°31'510.6
2017-Apr-22 00:01N 51°19' E 002°38'510.4
2017-Apr-21 23:31N 51°21' E 002°45'611.3
2017-Apr-21 23:00N 51°22' E 002°54'611.5
2017-Apr-21 22:31N 51°22' E 003°04'510.6
2017-Apr-21 22:00N 51°21' E 003°12'1 1.3
2017-Apr-21 21:29N 51°21' E 003°12'0 0.0
2017-Apr-21 20:59N 51°21' E 003°12'0 0.0
2017-Apr-21 20:29N 51°21' E 003°12'0 0.0
2017-Apr-21 19:59N 51°21' E 003°12'0 0.0
2017-Apr-21 19:29N 51°21' E 003°12'0 0.0
2017-Apr-21 18:59N 51°21' E 003°12'0 0.0
2017-Apr-21 18:29N 51°21' E 003°12'0 0.0
2017-Apr-21 17:59N 51°21' E 003°12'0 0.0
2017-Apr-21 17:29N 51°21' E 003°12'0 0.0
2017-Apr-21 16:59N 51°21' E 003°12'0 0.0
2017-Apr-21 16:29N 51°21' E 003°12'0 0.0
2017-Apr-21 15:59N 51°21' E 003°12'0 0.0
2017-Apr-21 15:29N 51°21' E 003°12'0 0.0
2017-Apr-21 14:59N 51°21' E 003°12'0 0.0
2017-Apr-21 14:29N 51°21' E 003°12'0 0.0
2017-Apr-21 13:29N 51°21' E 003°12'0 0.0
2017-Apr-21 12:59N 51°21' E 003°12'0 0.0
2017-Apr-21 12:29N 51°21' E 003°12'0 0.0
2017-Apr-21 11:59N 51°21' E 003°12'0 0.0
2017-Apr-21 11:29N 51°21' E 003°12'0 0.0
2017-Apr-21 10:59N 51°21' E 003°12'0 0.0
2017-Apr-21 10:29N 51°21' E 003°12'0 0.0
2017-Apr-21 09:59N 51°21' E 003°12'0 0.0
2017-Apr-21 09:29N 51°21' E 003°12'0 0.0
2017-Apr-21 08:59N 51°21' E 003°12'0 0.0
2017-Apr-21 08:26N 51°21' E 003°12'0 0.0
2017-Apr-21 07:50N 51°21' E 003°12'0 0.0
2017-Apr-21 07:29N 51°21' E 003°12'0 0.0
2017-Apr-21 06:59N 51°21' E 003°12'0 0.0
2017-Apr-21 06:29N 51°21' E 003°12'0 0.0
2017-Apr-21 05:59N 51°21' E 003°12'0 0.0
2017-Apr-21 05:26N 51°21' E 003°12'0 0.0
2017-Apr-21 04:59N 51°21' E 003°12'0 0.0
2017-Apr-21 04:29N 51°21' E 003°12'0 0.0
2017-Apr-21 03:59N 51°21' E 003°12'0 0.0
2017-Apr-21 03:29N 51°21' E 003°12'0 0.0
2017-Apr-21 02:56N 51°21' E 003°12'0 0.0
2017-Apr-21 02:29N 51°21' E 003°12'0 0.0
2017-Apr-21 01:59N 51°21' E 003°12'0 0.0
2017-Apr-21 01:29N 51°21' E 003°12'0 0.0
2017-Apr-21 00:59N 51°21' E 003°12'0 0.0
2017-Apr-21 00:29N 51°21' E 003°12'0 0.0
2017-Apr-20 23:59N 51°21' E 003°12'0 0.0
2017-Apr-20 23:29N 51°21' E 003°12'0 0.0
2017-Apr-20 22:59N 51°21' E 003°12'0 0.0
2017-Apr-20 22:29N 51°21' E 003°12'0 0.0
2017-Apr-20 21:59N 51°21' E 003°12'0 0.0
2017-Apr-20 21:29N 51°21' E 003°12'0 0.0
2017-Apr-20 20:59N 51°21' E 003°12'0 0.0
2017-Apr-20 20:29N 51°21' E 003°12'0 0.0
2017-Apr-20 19:59N 51°21' E 003°12'0 0.0
2017-Apr-20 19:29N 51°21' E 003°12'0 0.0
2017-Apr-20 18:59N 51°21' E 003°12'0 0.0
2017-Apr-20 18:29N 51°21' E 003°12'0 0.0
2017-Apr-20 17:59N 51°21' E 003°12'0 0.0
2017-Apr-20 17:29N 51°21' E 003°12'0 0.0
2017-Apr-20 16:59N 51°21' E 003°12'0 0.0
2017-Apr-20 16:29N 51°21' E 003°12'0 0.0
2017-Apr-20 15:59N 51°21' E 003°12'0 0.0
2017-Apr-20 15:29N 51°21' E 003°12'0 0.0
2017-Apr-20 14:59N 51°21' E 003°12'0 0.0
2017-Apr-20 14:29N 51°21' E 003°12'0 0.0
2017-Apr-20 13:29N 51°21' E 003°12'0 0.0
2017-Apr-20 12:59N 51°21' E 003°12'0 0.0
2017-Apr-20 12:29N 51°21' E 003°12'0 0.0
2017-Apr-20 11:59N 51°21' E 003°12'0 0.0
2017-Apr-20 11:29N 51°21' E 003°12'0 0.0
2017-Apr-20 10:59N 51°21' E 003°12'0 0.0
2017-Apr-20 10:29N 51°21' E 003°12'0 0.0
2017-Apr-20 09:59N 51°21' E 003°12'0 0.0
2017-Apr-20 09:26N 51°21' E 003°12'0 0.0
2017-Apr-20 08:59N 51°21' E 003°12'0 0.0
2017-Apr-20 08:29N 51°21' E 003°12'0 0.0
2017-Apr-20 07:56N 51°21' E 003°12'0 0.0
2017-Apr-20 07:29N 51°21' E 003°12'0 0.0
2017-Apr-20 06:59N 51°21' E 003°12'0 0.0
2017-Apr-20 06:29N 51°21' E 003°12'0 0.0
2017-Apr-20 05:59N 51°21' E 003°12'0 0.0
2017-Apr-20 05:29N 51°21' E 003°12'0 0.0
2017-Apr-20 04:59N 51°21' E 003°12'0 0.0
2017-Apr-20 04:29N 51°21' E 003°12'0 0.0
2017-Apr-20 03:59N 51°21' E 003°12'0 0.0
2017-Apr-20 03:29N 51°21' E 003°12'0 0.0
2017-Apr-20 02:59N 51°21' E 003°12'0 0.0
2017-Apr-20 02:29N 51°21' E 003°12'0 0.0
2017-Apr-20 01:59N 51°21' E 003°12'0 0.0
2017-Apr-20 01:29N 51°21' E 003°12'0 0.0
2017-Apr-20 00:59N 51°21' E 003°12'0 0.0
2017-Apr-20 00:29N 51°21' E 003°12'0 0.0
2017-Apr-19 23:59N 51°21' E 003°12'0 0.0
2017-Apr-19 23:29N 51°21' E 003°12'0 0.0
2017-Apr-19 22:59N 51°21' E 003°12'0 0.0
2017-Apr-19 22:29N 51°21' E 003°12'0 0.0
2017-Apr-19 21:59N 51°21' E 003°12'0 0.0
2017-Apr-19 21:29N 51°21' E 003°12'0 0.0
2017-Apr-19 20:59N 51°21' E 003°12'0 0.0
2017-Apr-19 20:29N 51°21' E 003°12'0 0.0
2017-Apr-19 19:59N 51°21' E 003°12'0 0.0
2017-Apr-19 19:29N 51°21' E 003°12'0 0.0
2017-Apr-19 18:59N 51°21' E 003°12'0 0.0
2017-Apr-19 18:29N 51°21' E 003°12'0 0.0
2017-Apr-19 17:59N 51°21' E 003°12'0 0.0
2017-Apr-19 17:29N 51°21' E 003°12'0 0.0
2017-Apr-19 16:59N 51°21' E 003°12'0 0.0
2017-Apr-19 16:29N 51°21' E 003°12'0 0.0
2017-Apr-19 15:59N 51°21' E 003°12'0 0.0
2017-Apr-19 15:29N 51°21' E 003°12'0 0.0
2017-Apr-19 14:59N 51°21' E 003°12'0 0.0
2017-Apr-19 14:29N 51°21' E 003°12'0 0.0
2017-Apr-19 13:26N 51°21' E 003°12'0 0.0
2017-Apr-19 12:59N 51°21' E 003°12'0 0.0
2017-Apr-19 12:29N 51°21' E 003°12'0 0.0
2017-Apr-19 11:59N 51°21' E 003°12'0 0.0
2017-Apr-19 11:29N 51°21' E 003°12'0 0.0
2017-Apr-19 10:59N 51°21' E 003°12'0 0.0
2017-Apr-19 10:29N 51°21' E 003°12'0 0.0
2017-Apr-19 09:59N 51°21' E 003°12'0 0.0
2017-Apr-19 09:29N 51°21' E 003°12'0 0.0
2017-Apr-19 08:59N 51°21' E 003°12'0 0.0
2017-Apr-19 08:29N 51°21' E 003°12'0 0.0
2017-Apr-19 07:59N 51°21' E 003°12'0 0.0
2017-Apr-19 07:26N 51°21' E 003°12'0 0.0
2017-Apr-19 06:59N 51°21' E 003°12'0 0.0
2017-Apr-19 06:29N 51°21' E 003°12'0 0.0
2017-Apr-19 05:59N 51°21' E 003°12'0 0.0
2017-Apr-19 05:29N 51°21' E 003°12'0 0.0
2017-Apr-19 04:59N 51°21' E 003°12'0 0.0
2017-Apr-19 04:29N 51°21' E 003°12'0 0.0
2017-Apr-19 03:59N 51°21' E 003°12'0 0.0
2017-Apr-19 03:29N 51°21' E 003°12'0 0.0
2017-Apr-19 02:59N 51°21' E 003°12'0 0.0
2017-Apr-19 02:29N 51°21' E 003°12'0 0.0
2017-Apr-19 01:59N 51°21' E 003°12'0 0.0
2017-Apr-19 01:29N 51°21' E 003°12'0 0.0
2017-Apr-19 00:59N 51°21' E 003°12'0 0.0
2017-Apr-19 00:29N 51°21' E 003°12'0 0.0
2017-Apr-18 23:59N 51°21' E 003°12'0 0.0
2017-Apr-18 23:28N 51°21' E 003°12'0 0.0
2017-Apr-18 22:59N 51°21' E 003°12'0 0.0
2017-Apr-18 22:29N 51°21' E 003°12'0 0.0
2017-Apr-18 21:59N 51°21' E 003°12'0 0.0
2017-Apr-18 21:29N 51°21' E 003°12'0 0.0
2017-Apr-18 20:58N 51°21' E 003°12'0 0.0
2017-Apr-18 20:26N 51°21' E 003°12'0 0.0
2017-Apr-18 19:59N 51°21' E 003°12'0 0.0
2017-Apr-18 19:26N 51°21' E 003°12'0 0.0
2017-Apr-18 18:59N 51°21' E 003°12'0 0.0
2017-Apr-18 18:29N 51°21' E 003°12'0 0.0
2017-Apr-18 17:59N 51°21' E 003°12'0 0.0
2017-Apr-18 17:29N 51°21' E 003°12'0 0.0
2017-Apr-18 16:59N 51°21' E 003°12'0 0.0
2017-Apr-18 16:29N 51°21' E 003°12'0 0.0
2017-Apr-18 15:59N 51°21' E 003°12'0 0.0
2017-Apr-18 15:29N 51°21' E 003°12'0 0.0
2017-Apr-18 14:56N 51°21' E 003°12'0 0.0
2017-Apr-18 13:59N 51°21' E 003°12'0 0.0
2017-Apr-18 13:29N 51°21' E 003°12'0 0.0
2017-Apr-18 12:59N 51°21' E 003°12'0 0.0
2017-Apr-18 12:29N 51°21' E 003°12'0 0.0
2017-Apr-18 11:59N 51°21' E 003°12'0 0.0
2017-Apr-18 11:28N 51°21' E 003°12'0 0.0
2017-Apr-18 10:58N 51°21' E 003°12'0 0.0
2017-Apr-18 10:28N 51°21' E 003°12'0 0.0
2017-Apr-18 09:58N 51°21' E 003°12'0 0.0
2017-Apr-18 09:29N 51°21' E 003°12'0 0.0
2017-Apr-18 08:59N 51°21' E 003°12'0 0.0
2017-Apr-18 08:29N 51°21' E 003°12'1 2.6
2017-Apr-18 08:01N 51°22' E 003°11'510.8
2017-Apr-18 07:30N 51°22' E 003°02'612.0
2017-Apr-18 07:01N 51°21' E 002°53'611.8
2017-Apr-18 06:31N 51°21' E 002°44'3 5.4
2017-Apr-18 06:01N 51°19' E 002°42'4 8.1
2017-Apr-18 05:31N 51°15' E 002°40'4 8.3
2017-Apr-18 05:01N 51°11' E 002°37'4 7.9
2017-Apr-18 04:30N 51°08' E 002°33'5 9.2
2017-Apr-18 04:00N 51°05' E 002°28'5 9.6
2017-Apr-18 03:30N 51°03' E 002°20'1 1.3
2017-Apr-18 02:59N 51°03' E 002°19'0 0.8
2017-Apr-18 02:26N 51°03' E 002°19'0 0.0
2017-Apr-18 01:59N 51°03' E 002°19'0 0.0
2017-Apr-18 01:26N 51°03' E 002°19'0 0.0
2017-Apr-18 00:59N 51°03' E 002°19'0 0.0
2017-Apr-18 00:30N 51°03' E 002°19'0 0.0
2017-Apr-17 23:59N 51°03' E 002°19'0 0.0
2017-Apr-17 23:29N 51°03' E 002°19'0 0.0
2017-Apr-17 22:56N 51°03' E 002°19'0 0.0
2017-Apr-17 22:28N 51°03' E 002°19'2 3.9
2017-Apr-17 21:57N 51°03' E 002°22'0 0.2
2017-Apr-17 21:28N 51°03' E 002°22'1 3.0
2017-Apr-17 21:00N 51°04' E 002°21'610.6
2017-Apr-17 20:28N 51°03' E 002°11'611.2
2017-Apr-17 19:59N 51°03' E 002°03'611.7
2017-Apr-17 19:28N 51°03' E 001°53'2 3.0
2017-Apr-17 18:56N 51°03' E 001°51'0 0.0
2017-Apr-17 18:29N 51°03' E 001°51'0 0.2
2017-Apr-17 17:59N 51°03' E 001°51'0 0.1
2017-Apr-17 17:23N 51°03' E 001°51'0 0.0
2017-Apr-17 16:59N 51°03' E 001°51'0 0.3
2017-Apr-17 16:31N 51°03' E 001°51'4 7.4
2017-Apr-17 16:01N 51°02' E 001°57'611.0
2017-Apr-17 15:30N 51°03' E 002°06'611.0
2017-Apr-17 14:59N 51°04' E 002°15'4 7.8
2017-Apr-17 14:30N 51°03' E 002°21'1 0.8
2017-Apr-17 13:26N 51°03' E 002°19'0 0.0
2017-Apr-17 12:59N 51°03' E 002°19'0 0.0
2017-Apr-17 12:29N 51°03' E 002°19'0 0.0
2017-Apr-17 11:59N 51°03' E 002°19'0 0.0
2017-Apr-17 11:29N 51°03' E 002°19'0 0.0
2017-Apr-17 10:59N 51°03' E 002°19'0 0.0
2017-Apr-17 10:29N 51°03' E 002°19'0 0.0
2017-Apr-17 09:59N 51°03' E 002°19'0 0.0
2017-Apr-17 09:27N 51°03' E 002°19'0 0.0
2017-Apr-17 08:59N 51°03' E 002°19'0 0.0
2017-Apr-17 08:20N 51°03' E 002°19'0 0.0
2017-Apr-17 07:59N 51°03' E 002°19'0 0.0
2017-Apr-17 07:29N 51°03' E 002°19'0 0.0
2017-Apr-17 06:59N 51°03' E 002°19'0 0.0
2017-Apr-17 06:29N 51°03' E 002°19'0 0.0
2017-Apr-17 05:59N 51°03' E 002°19'0 0.0
2017-Apr-17 05:23N 51°03' E 002°19'0 0.0
2017-Apr-17 04:56N 51°03' E 002°19'0 0.0
2017-Apr-17 03:59N 51°03' E 002°19'0 0.0
2017-Apr-17 03:29N 51°03' E 002°19'0 0.0
2017-Apr-17 02:59N 51°03' E 002°19'0 0.0
2017-Apr-17 02:23N 51°03' E 002°19'0 0.0
2017-Apr-17 01:59N 51°03' E 002°19'0 0.0
2017-Apr-17 01:29N 51°03' E 002°19'0 0.0
2017-Apr-17 00:56N 51°03' E 002°19'0 0.0
2017-Apr-17 00:23N 51°03' E 002°19'0 0.0
2017-Apr-16 23:59N 51°03' E 002°19'0 0.0
2017-Apr-16 23:26N 51°03' E 002°19'0 0.0
2017-Apr-16 22:59N 51°03' E 002°19'1 1.7
2017-Apr-16 22:30N 51°03' E 002°21'0 0.9
2017-Apr-16 22:00N 51°04' E 002°21'5 9.3
2017-Apr-16 21:29N 51°04' E 002°14'510.6
2017-Apr-16 21:00N 51°03' E 002°05'510.7
2017-Apr-16 20:30N 51°02' E 001°57'4 8.5
2017-Apr-16 20:00N 51°01' E 001°50'5 9.0
2017-Apr-16 19:30N 51°05' E 001°55'611.9
2017-Apr-16 19:00N 51°07' E 002°04'611.5
2017-Apr-16 18:30N 51°09' E 002°13'510.6
2017-Apr-16 18:00N 51°11' E 002°21'510.6
2017-Apr-16 17:30N 51°14' E 002°27'510.4
2017-Apr-16 17:01N 51°18' E 002°33'510.5
2017-Apr-16 16:30N 51°21' E 002°40'4 7.8
2017-Apr-16 16:00N 51°22' E 002°45'5 9.8
2017-Apr-16 15:30N 51°22' E 002°53'510.2
2017-Apr-16 15:00N 51°22' E 003°01'7 6.3
2017-Apr-16 13:58N 51°21' E 003°12'0 0.0
2017-Apr-16 13:28N 51°21' E 003°12'0 0.0
2017-Apr-16 12:55N 51°21' E 003°12'0 0.0
2017-Apr-16 12:28N 51°21' E 003°12'0 0.0
2017-Apr-16 11:58N 51°21' E 003°12'0 0.0
2017-Apr-16 11:28N 51°21' E 003°12'0 0.0
2017-Apr-16 10:58N 51°21' E 003°12'0 0.0
2017-Apr-16 10:28N 51°21' E 003°12'0 0.0
2017-Apr-16 09:58N 51°21' E 003°12'0 0.0
2017-Apr-16 09:28N 51°21' E 003°12'0 0.0
2017-Apr-16 08:58N 51°21' E 003°12'0 0.0
2017-Apr-16 08:28N 51°21' E 003°12'0 0.0
2017-Apr-16 07:58N 51°21' E 003°12'0 0.0
2017-Apr-16 07:28N 51°21' E 003°12'0 0.0
2017-Apr-16 06:58N 51°21' E 003°12'0 0.0
2017-Apr-16 06:28N 51°21' E 003°12'0 0.0
2017-Apr-16 05:58N 51°21' E 003°12'0 0.0
2017-Apr-16 05:28N 51°21' E 003°12'0 0.0
2017-Apr-16 04:55N 51°21' E 003°12'0 0.0
2017-Apr-16 04:28N 51°21' E 003°12'0 0.0
2017-Apr-16 03:58N 51°21' E 003°12'0 0.0
2017-Apr-16 03:28N 51°21' E 003°12'0 0.3
2017-Apr-16 03:01N 51°21' E 003°12'4 8.6
2017-Apr-16 02:30N 51°22' E 003°05'713.8
2017-Apr-16 02:00N 51°21' E 002°54'613.0
2017-Apr-16 01:30N 51°21' E 002°44'611.4
2017-Apr-16 01:00N 51°16' E 002°40'611.6
2017-Apr-16 00:30N 51°11' E 002°36'510.4
2017-Apr-16 00:00N 51°07' E 002°31'510.3
2017-Apr-15 23:30N 51°04' E 002°23'2 4.2
2017-Apr-15 23:01N 51°03' E 002°20'1 1.4
2017-Apr-15 22:30N 51°03' E 002°19'0 0.1
2017-Apr-15 21:58N 51°03' E 002°19'0 0.0
2017-Apr-15 21:28N 51°03' E 002°19'0 0.0
2017-Apr-15 20:58N 51°03' E 002°19'0 0.0
2017-Apr-15 20:28N 51°03' E 002°19'0 0.0
2017-Apr-15 19:58N 51°03' E 002°19'0 0.0
2017-Apr-15 19:28N 51°03' E 002°19'0 0.0
2017-Apr-15 18:58N 51°03' E 002°19'0 0.0
2017-Apr-15 18:28N 51°03' E 002°19'0 0.0
2017-Apr-15 17:58N 51°03' E 002°19'0 0.0
2017-Apr-15 17:28N 51°03' E 002°19'0 0.0
2017-Apr-15 16:58N 51°03' E 002°19'0 0.0
2017-Apr-15 16:25N 51°03' E 002°19'0 0.0
2017-Apr-15 15:55N 51°03' E 002°19'0 0.0
2017-Apr-15 15:25N 51°03' E 002°19'0 0.0
2017-Apr-15 14:58N 51°03' E 002°19'0 0.0
2017-Apr-15 14:28N 51°03' E 002°19'1 0.6
2017-Apr-15 13:17N 51°03' E 002°21'1 1.9
2017-Apr-15 13:00N 51°04' E 002°21'713.2
2017-Apr-15 12:30N 51°03' E 002°10'713.2
2017-Apr-15 11:59N 51°02' E 001°60'510.9
2017-Apr-15 11:30N 51°03' E 001°51'611.2
2017-Apr-15 11:00N 51°06' E 001°59'  

Dump ship's entire track history